Itaguaru, Brazil
Current Conditions -  °F | °C
As of 6:00 AM on Wednesday 22 Oct 2014 (Local Time) from SBAN Reporting Station
Clear Clear  
Wind Chill: 66°   Ceiling: Unl
Heat Index: 66°   Visibility: 6mi
Dew Point: 57°   Wind: 7mph
Humidity: 73%   Direction: 90°E
Pressure: 30.03"   Gusts: NA
Location:  15.75°S, 49.62°W
Report Text: SBAN 220800Z 09006KT CAVOK 19/14 Q1017
Loading
Personal Weather Stations






























Interactive Weather Map
Tropical Storm Tracking
New forecast layout! Learn more

10-Day Weather Forecast

Advertisements
Track Severe Weather on mobile